Time,TemperatureF,DewpointF,PressureIn,WindDirection,WindDirectionDegrees,WindSpeedMPH,WindSpeedGustMPH,Humidity,HourlyPrecipIn,Conditions,Clouds,dailyrainin,SoftwareType,DateUTC
2013-08-15 00:00:00,56.1,52.3,30.09,East,90,0.0,0.0,87,0.00,,,0.00,meteobridge,2013-08-15 05:00:00,
2013-08-15 00:05:00,56.3,52.9,30.09,North,0,0.0,0.0,88,0.00,,,0.00,meteobridge,2013-08-15 05:05:00,
2013-08-15 00:11:00,56.3,52.9,30.09,North,0,0.0,0.0,88,0.00,,,0.00,meteobridge,2013-08-15 05:11:00,
2013-08-15 00:16:00,56.3,52.9,30.09,North,0,0.0,0.0,88,0.00,,,0.00,meteobridge,2013-08-15 05:16:00,
2013-08-15 00:22:00,55.9,52.5,30.09,North,0,0.0,0.0,88,0.00,,,0.00,meteobridge,2013-08-15 05:22:00,
2013-08-15 00:28:00,55.2,51.4,30.09,North,0,0.0,0.0,87,0.00,,,0.00,meteobridge,2013-08-15 05:28:00,
2013-08-15 00:33:00,54.7,50.9,30.09,North,0,0.0,0.0,87,0.00,,,0.00,meteobridge,2013-08-15 05:33:00,
2013-08-15 00:39:00,54.3,50.9,30.09,North,0,0.0,0.0,88,0.00,,,0.00,meteobridge,2013-08-15 05:39:00,
2013-08-15 00:45:00,54.1,50.9,30.09,North,0,0.0,0.0,89,0.00,,,0.00,meteobridge,2013-08-15 05:45:00,
2013-08-15 00:50:00,54.0,50.7,30.09,North,0,0.0,0.0,89,0.00,,,0.00,meteobridge,2013-08-15 05:50:00,
2013-08-15 00:56:00,54.1,50.9,30.09,North,0,0.0,0.0,89,0.00,,,0.00,meteobridge,2013-08-15 05:56:00,
2013-08-15 01:02:00,54.0,50.7,30.09,North,0,0.0,0.0,89,0.00,,,0.00,meteobridge,2013-08-15 06:02:00,
2013-08-15 01:07:00,53.6,50.7,30.09,East,90,0.0,0.0,90,0.00,,,0.00,meteobridge,2013-08-15 06:07:00,
2013-08-15 01:13:00,53.4,51.1,30.09,East,90,0.0,0.0,92,0.00,,,0.00,meteobridge,2013-08-15 06:13:00,
2013-08-15 01:18:00,53.8,51.3,30.09,East,90,0.0,0.0,91,0.00,,,0.00,meteobridge,2013-08-15 06:18:00,
2013-08-15 01:24:00,53.8,51.3,30.09,East,90,0.0,0.0,91,0.00,,,0.00,meteobridge,2013-08-15 06:24:00,
2013-08-15 01:30:00,54.0,51.6,30.09,SE,135,0.0,0.0,92,0.00,,,0.00,meteobridge,2013-08-15 06:30:00,
2013-08-15 01:35:00,54.3,52.0,30.09,SE,135,0.0,0.0,92,0.00,,,0.00,meteobridge,2013-08-15 06:35:00,
2013-08-15 01:41:00,54.1,51.8,30.09,SE,135,0.0,0.0,92,0.00,,,0.00,meteobridge,2013-08-15 06:41:00,
2013-08-15 01:47:00,54.0,51.6,30.09,SE,135,0.0,0.0,92,0.00,,,0.00,meteobridge,2013-08-15 06:47:00,
2013-08-15 01:52:00,53.8,51.4,30.09,SE,135,0.0,0.0,92,0.00,,,0.00,meteobridge,2013-08-15 06:52:00,
2013-08-15 01:58:00,53.6,51.3,30.09,SE,135,0.0,0.0,92,0.00,,,0.00,meteobridge,2013-08-15 06:58:00,
2013-08-15 02:04:00,53.4,51.4,30.09,SE,135,0.0,0.0,93,0.00,,,0.00,meteobridge,2013-08-15 07:04:00,
2013-08-15 02:16:00,53.4,51.1,30.08,SE,135,0.0,0.0,92,0.00,,,0.00,meteobridge,2013-08-15 07:16:00,
2013-08-15 02:22:00,53.1,50.7,30.08,SE,135,0.0,0.0,92,0.00,,,0.00,meteobridge,2013-08-15 07:22:00,
2013-08-15 02:28:00,52.7,50.4,30.08,SE,135,0.0,0.0,92,0.00,,,0.00,meteobridge,2013-08-15 07:28:00,
2013-08-15 02:33:00,52.7,50.7,30.08,SE,135,0.0,0.0,93,0.00,,,0.00,meteobridge,2013-08-15 07:33:00,
2013-08-15 02:39:00,52.5,50.5,30.08,SE,135,0.0,0.0,93,0.00,,,0.00,meteobridge,2013-08-15 07:39:00,
2013-08-15 02:44:00,52.7,50.7,30.09,SE,135,0.0,0.0,93,0.00,,,0.00,meteobridge,2013-08-15 07:44:00,
2013-08-15 02:50:00,52.5,50.5,30.09,SE,135,0.0,0.0,93,0.00,,,0.00,meteobridge,2013-08-15 07:50:00,
2013-08-15 02:56:00,52.5,50.5,30.08,SE,135,0.0,0.0,93,0.00,,,0.00,meteobridge,2013-08-15 07:56:00,
2013-08-15 03:01:00,52.7,50.7,30.09,SE,135,0.0,0.0,93,0.00,,,0.00,meteobridge,2013-08-15 08:01:00,
2013-08-15 03:07:00,52.7,50.7,30.09,SE,135,0.0,0.0,93,0.00,,,0.00,meteobridge,2013-08-15 08:07:00,
2013-08-15 03:13:00,52.5,50.5,30.08,SE,135,0.0,0.0,93,0.00,,,0.00,meteobridge,2013-08-15 08:13:00,
2013-08-15 03:18:00,52.5,50.5,30.08,SE,135,0.0,0.0,93,0.00,,,0.00,meteobridge,2013-08-15 08:18:00,
2013-08-15 03:24:00,52.5,50.9,30.08,SE,135,0.0,0.0,94,0.00,,,0.00,meteobridge,2013-08-15 08:24:00,
2013-08-15 03:30:00,52.3,50.7,30.09,SE,135,0.0,0.0,94,0.00,,,0.00,meteobridge,2013-08-15 08:30:00,
2013-08-15 03:35:00,52.2,50.5,30.08,SE,135,0.0,0.0,94,0.00,,,0.00,meteobridge,2013-08-15 08:35:00,
2013-08-15 03:41:00,52.0,50.4,30.09,SE,135,0.0,0.0,94,0.00,,,0.00,meteobridge,2013-08-15 08:41:00,
2013-08-15 03:46:00,52.0,50.5,30.08,SE,135,0.7,0.7,95,0.00,,,0.00,meteobridge,2013-08-15 08:46:00,
2013-08-15 03:52:00,52.5,51.4,30.08,SE,135,0.0,0.0,96,0.00,,,0.00,meteobridge,2013-08-15 08:52:00,
2013-08-15 03:58:00,52.7,51.6,30.08,SE,135,0.0,0.0,96,0.00,,,0.00,meteobridge,2013-08-15 08:58:00,
2013-08-15 04:03:00,52.9,52.0,30.09,SE,135,0.0,0.0,97,0.00,,,0.00,meteobridge,2013-08-15 09:03:00,
2013-08-15 04:09:00,52.9,51.8,30.08,SE,135,0.0,0.0,96,0.00,,,0.00,meteobridge,2013-08-15 09:09:00,
2013-08-15 04:15:00,53.2,52.2,30.09,South,180,0.7,1.6,96,0.00,,,0.00,meteobridge,2013-08-15 09:15:00,
2013-08-15 04:20:00,53.4,52.3,30.08,SE,135,0.0,0.0,96,0.00,,,0.00,meteobridge,2013-08-15 09:20:00,
2013-08-15 04:26:00,53.6,52.0,30.08,South,180,0.0,0.0,94,0.00,,,0.00,meteobridge,2013-08-15 09:26:00,
2013-08-15 04:32:00,53.6,52.0,30.08,SSE,158,0.0,0.0,94,0.00,,,0.00,meteobridge,2013-08-15 09:32:00,
2013-08-15 04:37:00,53.8,51.8,30.08,South,180,0.0,0.0,93,0.00,,,0.00,meteobridge,2013-08-15 09:37:00,
2013-08-15 04:43:00,54.0,52.0,30.08,South,180,0.0,0.0,93,0.00,,,0.00,meteobridge,2013-08-15 09:43:00,
2013-08-15 04:49:00,54.0,51.6,30.08,South,180,0.0,0.0,92,0.00,,,0.00,meteobridge,2013-08-15 09:49:00,
2013-08-15 04:54:00,54.0,51.6,30.08,SE,135,0.0,0.0,92,0.00,,,0.00,meteobridge,2013-08-15 09:54:00,
2013-08-15 05:00:00,54.3,51.8,30.08,South,180,3.8,3.8,91,0.00,,,0.00,meteobridge,2013-08-15 10:00:00,
2013-08-15 05:05:00,54.9,52.3,30.08,South,180,2.2,2.2,91,0.00,,,0.00,meteobridge,2013-08-15 10:05:00,
2013-08-15 05:11:00,55.0,52.2,30.08,South,180,0.0,1.6,90,0.00,,,0.00,meteobridge,2013-08-15 10:11:00,
2013-08-15 05:17:00,55.2,52.0,30.08,South,180,0.0,0.0,89,0.00,,,0.00,meteobridge,2013-08-15 10:17:00,
2013-08-15 05:22:00,55.2,51.8,30.08,SE,135,0.0,0.0,88,0.00,,,0.00,meteobridge,2013-08-15 10:22:00,
2013-08-15 05:28:00,55.2,51.8,30.08,South,180,0.0,0.0,88,0.00,,,0.00,meteobridge,2013-08-15 10:28:00,
2013-08-15 05:34:00,55.4,51.6,30.08,SE,135,0.0,0.0,87,0.00,,,0.00,meteobridge,2013-08-15 10:34:00,
2013-08-15 05:39:00,55.4,51.6,30.08,SE,135,0.0,0.0,87,0.00,,,0.00,meteobridge,2013-08-15 10:39:00,
2013-08-15 05:45:00,55.4,51.6,30.08,SE,135,2.2,2.2,87,0.00,,,0.00,meteobridge,2013-08-15 10:45:00,
2013-08-15 05:51:00,55.6,51.8,30.09,South,180,2.2,2.2,87,0.00,,,0.00,meteobridge,2013-08-15 10:51:00,
2013-08-15 05:56:00,55.8,52.0,30.08,South,180,0.7,1.6,87,0.00,,,0.00,meteobridge,2013-08-15 10:56:00,
2013-08-15 06:02:00,55.8,52.0,30.08,SE,135,2.2,2.2,87,0.00,,,0.00,meteobridge,2013-08-15 11:02:00,
2013-08-15 06:07:00,55.6,51.8,30.09,South,180,2.2,2.2,87,0.00,,,0.00,meteobridge,2013-08-15 11:07:00,
2013-08-15 06:13:00,55.8,52.0,30.09,South,180,2.2,3.8,87,0.00,,,0.00,meteobridge,2013-08-15 11:13:00,
2013-08-15 06:19:00,55.8,52.0,30.09,South,180,1.6,2.2,87,0.00,,,0.00,meteobridge,2013-08-15 11:19:00,
2013-08-15 06:24:00,55.6,51.8,30.09,South,180,0.7,0.7,87,0.00,,,0.00,meteobridge,2013-08-15 11:24:00,
2013-08-15 06:30:00,55.6,51.8,30.09,South,180,0.0,0.0,87,0.00,,,0.00,meteobridge,2013-08-15 11:30:00,
2013-08-15 06:36:00,56.1,52.3,30.09,South,180,0.0,0.0,87,0.00,,,0.00,meteobridge,2013-08-15 11:36:00,
2013-08-15 06:41:00,56.8,53.1,30.09,South,180,0.0,0.0,87,0.00,,,0.00,meteobridge,2013-08-15 11:41:00,
2013-08-15 06:47:00,57.4,52.9,30.09,South,180,0.0,0.0,85,0.00,,,0.00,meteobridge,2013-08-15 11:47:00,
2013-08-15 06:53:00,57.4,52.9,30.09,South,180,2.2,2.2,85,0.00,,,0.00,meteobridge,2013-08-15 11:53:00,
2013-08-15 06:58:00,57.4,52.9,30.09,SE,135,3.1,3.1,85,0.00,,,0.00,meteobridge,2013-08-15 11:58:00,
2013-08-15 07:04:00,57.6,53.4,30.10,SW,225,1.6,2.2,86,0.00,,,0.00,meteobridge,2013-08-15 12:04:00,
2013-08-15 07:09:00,57.7,53.6,30.10,SW,225,3.1,3.1,86,0.00,,,0.00,meteobridge,2013-08-15 12:09:00,
2013-08-15 07:15:00,57.9,53.8,30.10,SSW,203,2.2,3.1,86,0.00,,,0.00,meteobridge,2013-08-15 12:15:00,
2013-08-15 07:17:00,58.1,54.0,30.10,South,180,2.2,2.2,86,0.00,,,0.00,meteobridge,2013-08-15 12:17:00,
2013-08-15 07:22:00,58.3,54.1,30.10,South,180,2.2,2.2,86,0.00,,,0.00,meteobridge,2013-08-15 12:22:00,
2013-08-15 07:28:00,58.5,54.3,30.10,South,180,1.6,1.6,86,0.00,,,0.00,meteobridge,2013-08-15 12:28:00,
2013-08-15 07:33:00,58.6,54.9,30.10,South,180,0.0,0.7,87,0.00,,,0.00,meteobridge,2013-08-15 12:33:00,
2013-08-15 07:39:00,58.6,54.5,30.10,SW,225,0.0,0.0,86,0.00,,,0.00,meteobridge,2013-08-15 12:39:00,
2013-08-15 07:45:00,58.6,54.9,30.09,SW,225,2.2,2.2,87,0.00,,,0.00,meteobridge,2013-08-15 12:45:00,
2013-08-15 07:50:00,58.8,55.0,30.09,South,180,3.8,3.8,87,0.00,,,0.00,meteobridge,2013-08-15 12:50:00,
2013-08-15 07:56:00,58.8,55.0,30.09,WSW,248,4.5,4.5,87,0.00,,,0.00,meteobridge,2013-08-15 12:56:00,
2013-08-15 08:02:00,59.0,55.2,30.10,SSW,203,3.8,4.5,87,0.00,,,0.00,meteobridge,2013-08-15 13:02:00,
2013-08-15 08:07:00,59.4,55.4,30.10,SW,225,3.1,3.8,87,0.00,,,0.00,meteobridge,2013-08-15 13:07:00,
2013-08-15 08:13:00,59.9,55.9,30.10,West,270,2.2,2.2,87,0.00,,,0.00,meteobridge,2013-08-15 13:13:00,
2013-08-15 08:19:00,60.8,56.3,30.10,SW,225,4.5,4.5,85,0.00,,,0.00,meteobridge,2013-08-15 13:19:00,
2013-08-15 08:24:00,61.3,56.5,30.10,SW,225,3.8,3.8,84,0.00,,,0.00,meteobridge,2013-08-15 13:24:00,
2013-08-15 08:30:00,61.9,57.0,30.10,SW,225,3.1,3.1,84,0.00,,,0.00,meteobridge,2013-08-15 13:30:00,
2013-08-15 08:35:00,63.0,57.4,30.10,South,180,0.7,3.1,82,0.00,,,0.00,meteobridge,2013-08-15 13:35:00,
2013-08-15 08:41:00,63.1,57.2,30.10,SW,225,0.0,0.0,81,0.00,,,0.00,meteobridge,2013-08-15 13:41:00,
2013-08-15 08:47:00,64.2,58.6,30.10,West,270,2.2,2.2,82,0.00,,,0.00,meteobridge,2013-08-15 13:47:00,
2013-08-15 08:52:00,64.8,58.1,30.10,West,270,1.6,1.6,79,0.00,,,0.00,meteobridge,2013-08-15 13:52:00,
2013-08-15 08:58:00,65.7,58.6,30.10,NW,315,0.0,0.0,78,0.00,,,0.00,meteobridge,2013-08-15 13:58:00,
2013-08-15 09:04:00,66.2,58.8,30.10,SW,225,0.0,1.6,77,0.00,,,0.00,meteobridge,2013-08-15 14:04:00,
2013-08-15 09:09:00,66.6,58.8,30.10,West,270,1.6,1.6,76,0.00,,,0.00,meteobridge,2013-08-15 14:09:00,
2013-08-15 09:15:00,67.1,59.4,30.10,SW,225,3.1,3.1,76,0.00,,,0.00,meteobridge,2013-08-15 14:15:00,
2013-08-15 09:21:00,67.8,59.9,30.10,NW,315,3.8,4.5,76,0.00,,,0.00,meteobridge,2013-08-15 14:21:00,
2013-08-15 09:26:00,68.2,59.5,30.11,WSW,248,3.8,4.5,74,0.00,,,0.00,meteobridge,2013-08-15 14:26:00,
2013-08-15 09:32:00,68.4,59.7,30.11,SSE,158,5.4,5.4,74,0.00,,,0.00,meteobridge,2013-08-15 14:32:00,
2013-08-15 09:37:00,69.3,60.6,30.11,South,180,3.8,4.5,74,0.00,,,0.00,meteobridge,2013-08-15 14:37:00,
2013-08-15 09:43:00,69.8,60.4,30.11,South,180,1.6,3.8,72,0.00,,,0.00,meteobridge,2013-08-15 14:43:00,
2013-08-15 09:49:00,70.7,60.4,30.11,SW,225,0.0,1.6,70,0.00,,,0.00,meteobridge,2013-08-15 14:49:00,
2013-08-15 09:54:00,70.7,60.1,30.11,SE,135,0.0,0.0,69,0.00,,,0.00,meteobridge,2013-08-15 14:54:00,
2013-08-15 10:00:00,70.3,60.1,30.11,SW,225,0.7,0.7,70,0.00,,,0.00,meteobridge,2013-08-15 15:00:00,
2013-08-15 10:06:00,70.3,60.4,30.11,South,180,2.2,2.2,71,0.00,,,0.00,meteobridge,2013-08-15 15:06:00,
2013-08-15 10:11:00,70.3,60.4,30.10,SW,225,0.0,3.8,71,0.00,,,0.00,meteobridge,2013-08-15 15:11:00,
2013-08-15 10:17:00,70.2,60.6,30.10,SSW,203,4.5,4.5,72,0.00,,,0.00,meteobridge,2013-08-15 15:17:00,
2013-08-15 10:23:00,71.6,61.3,30.10,SSW,203,3.8,4.5,70,0.00,,,0.00,meteobridge,2013-08-15 15:23:00,
2013-08-15 10:28:00,71.2,61.7,30.10,SW,225,7.6,7.6,72,0.00,,,0.00,meteobridge,2013-08-15 15:28:00,
2013-08-15 10:34:00,71.8,61.0,30.10,SW,225,9.2,9.2,69,0.00,,,0.00,meteobridge,2013-08-15 15:34:00,
2013-08-15 10:40:00,71.4,60.8,30.10,South,180,8.3,8.3,69,0.00,,,0.00,meteobridge,2013-08-15 15:40:00,
2013-08-15 10:45:00,72.1,60.6,30.10,South,180,7.6,9.8,67,0.00,,,0.00,meteobridge,2013-08-15 15:45:00,
2013-08-15 10:51:00,72.5,60.4,30.10,SW,225,8.3,9.2,66,0.00,,,0.00,meteobridge,2013-08-15 15:51:00,
2013-08-15 10:56:00,72.5,60.1,30.10,SW,225,10.7,16.8,65,0.00,,,0.00,meteobridge,2013-08-15 15:56:00,
2013-08-15 11:02:00,72.0,59.5,30.10,SW,225,9.2,11.4,65,0.00,,,0.00,meteobridge,2013-08-15 16:02:00,
2013-08-15 11:08:00,72.3,60.3,30.09,SW,225,13.0,13.0,66,0.00,,,0.00,meteobridge,2013-08-15 16:08:00,
2013-08-15 11:13:00,72.5,60.4,30.09,SW,225,10.7,10.7,66,0.00,,,0.00,meteobridge,2013-08-15 16:13:00,
2013-08-15 11:18:00,72.5,60.4,30.09,SW,225,6.9,7.6,66,0.00,,,0.00,meteobridge,2013-08-15 16:18:00,
2013-08-15 11:24:00,72.9,60.4,30.09,SSW,203,9.2,9.2,65,0.00,,,0.00,meteobridge,2013-08-15 16:24:00,
2013-08-15 11:30:00,72.9,59.9,30.09,SW,225,9.8,9.8,64,0.00,,,0.00,meteobridge,2013-08-15 16:30:00,
2013-08-15 11:35:00,73.4,61.0,30.09,West,270,3.1,7.6,65,0.00,,,0.00,meteobridge,2013-08-15 16:35:00,
2013-08-15 11:41:00,74.7,62.1,30.09,South,180,8.3,8.3,65,0.00,,,0.00,meteobridge,2013-08-15 16:41:00,
2013-08-15 11:46:00,74.8,61.0,30.09,West,270,6.0,9.8,62,0.00,,,0.00,meteobridge,2013-08-15 16:46:00,
2013-08-15 11:52:00,75.4,60.4,30.09,SW,225,6.0,9.8,60,0.00,,,0.00,meteobridge,2013-08-15 16:52:00,
2013-08-15 11:58:00,74.8,57.6,30.09,West,270,12.1,12.1,55,0.00,,,0.00,meteobridge,2013-08-15 16:58:00,
2013-08-15 12:03:00,74.8,57.6,30.09,West,270,6.9,12.1,55,0.00,,,0.00,meteobridge,2013-08-15 17:03:00,
2013-08-15 12:09:00,75.4,57.6,30.09,SW,225,8.3,8.3,54,0.00,,,0.00,meteobridge,2013-08-15 17:09:00,
2013-08-15 12:15:00,75.6,57.7,30.09,NW,315,5.4,9.8,54,0.00,,,0.00,meteobridge,2013-08-15 17:15:00,
2013-08-15 12:20:00,76.6,59.2,30.08,South,180,6.0,7.6,55,0.00,,,0.00,meteobridge,2013-08-15 17:20:00,
2013-08-15 12:26:00,76.3,59.0,30.09,North,0,13.0,13.0,55,0.00,,,0.00,meteobridge,2013-08-15 17:26:00,
2013-08-15 12:32:00,75.7,57.9,30.08,SW,225,8.3,8.3,54,0.00,,,0.00,meteobridge,2013-08-15 17:32:00,
2013-08-15 12:37:00,73.9,57.7,30.09,SW,225,11.4,14.5,57,0.00,,,0.00,meteobridge,2013-08-15 17:37:00,
2013-08-15 12:43:00,74.1,57.9,30.08,South,180,8.3,13.0,57,0.00,,,0.00,meteobridge,2013-08-15 17:43:00,
2013-08-15 12:49:00,74.8,58.1,30.08,South,180,8.3,9.8,56,0.00,,,0.00,meteobridge,2013-08-15 17:49:00,
2013-08-15 12:54:00,76.3,59.0,30.08,West,270,7.6,7.6,55,0.00,,,0.00,meteobridge,2013-08-15 17:54:00,
2013-08-15 13:00:00,76.3,55.8,30.08,West,270,8.3,8.3,49,0.00,,,0.00,meteobridge,2013-08-15 18:00:00,
2013-08-15 13:05:00,76.6,55.4,30.08,SSW,203,8.3,12.1,48,0.00,,,0.00,meteobridge,2013-08-15 18:05:00,
2013-08-15 13:11:00,77.0,55.8,30.08,NNW,338,6.9,9.8,48,0.00,,,0.00,meteobridge,2013-08-15 18:11:00,
2013-08-15 13:17:00,77.2,56.5,30.07,SE,135,2.2,4.5,49,0.00,,,0.00,meteobridge,2013-08-15 18:17:00,
2013-08-15 13:22:00,78.8,57.4,30.07,SW,225,5.4,5.4,48,0.00,,,0.00,meteobridge,2013-08-15 18:22:00,
2013-08-15 13:28:00,78.8,56.3,30.07,SW,225,8.3,8.3,46,0.00,,,0.00,meteobridge,2013-08-15 18:28:00,
2013-08-15 13:34:00,77.7,57.6,30.07,SW,225,10.7,10.7,50,0.00,,,0.00,meteobridge,2013-08-15 18:34:00,
2013-08-15 13:39:00,77.4,57.2,30.07,SSW,203,6.0,9.8,50,0.00,,,0.00,meteobridge,2013-08-15 18:39:00,
2013-08-15 13:45:00,77.9,57.7,30.07,South,180,4.5,6.9,50,0.00,,,0.00,meteobridge,2013-08-15 18:45:00,
2013-08-15 13:51:00,78.6,58.5,30.07,South,180,13.0,13.0,50,0.00,,,0.00,meteobridge,2013-08-15 18:51:00,
2013-08-15 13:56:00,78.1,57.4,30.07,SW,225,9.2,9.2,49,0.00,,,0.00,meteobridge,2013-08-15 18:56:00,
2013-08-15 14:01:00,77.9,56.7,30.07,SW,225,8.3,8.3,48,0.00,,,0.00,meteobridge,2013-08-15 19:01:00,
2013-08-15 14:07:00,77.7,57.0,30.07,SW,225,8.3,8.3,49,0.00,,,0.00,meteobridge,2013-08-15 19:07:00,
2013-08-15 14:13:00,77.4,56.1,30.07,SW,225,6.9,11.4,48,0.00,,,0.00,meteobridge,2013-08-15 19:13:00,
2013-08-15 14:19:00,77.2,55.9,30.07,South,180,6.9,12.1,48,0.00,,,0.00,meteobridge,2013-08-15 19:19:00,
2013-08-15 14:24:00,76.5,57.6,30.07,SW,225,6.9,9.2,52,0.00,,,0.00,meteobridge,2013-08-15 19:24:00,
2013-08-15 14:30:00,75.7,57.9,30.07,WSW,248,4.5,5.4,54,0.00,,,0.00,meteobridge,2013-08-15 19:30:00,
2013-08-15 14:36:00,76.3,56.8,30.07,West,270,3.8,7.6,51,0.00,,,0.00,meteobridge,2013-08-15 19:36:00,
2013-08-15 14:41:00,77.4,57.7,30.07,West,270,6.9,9.2,51,0.00,,,0.00,meteobridge,2013-08-15 19:41:00,
2013-08-15 14:47:00,77.5,55.8,30.06,SW,225,9.2,9.2,47,0.00,,,0.00,meteobridge,2013-08-15 19:47:00,
2013-08-15 14:53:00,78.4,58.8,30.06,West,270,6.9,9.2,51,0.00,,,0.00,meteobridge,2013-08-15 19:53:00,
2013-08-15 14:58:00,78.1,57.9,30.07,NW,315,11.4,11.4,50,0.00,,,0.00,meteobridge,2013-08-15 19:58:00,
2013-08-15 15:04:00,77.5,56.8,30.07,NNW,338,6.9,7.6,49,0.00,,,0.00,meteobridge,2013-08-15 20:04:00,
2013-08-15 15:10:00,77.7,57.0,30.07,West,270,9.8,9.8,49,0.00,,,0.00,meteobridge,2013-08-15 20:10:00,
2013-08-15 15:15:00,78.8,57.4,30.06,WNW,293,10.7,10.7,48,0.00,,,0.00,meteobridge,2013-08-15 20:15:00,
2013-08-15 15:21:00,78.3,58.1,30.06,SW,225,8.3,8.3,50,0.00,,,0.00,meteobridge,2013-08-15 20:21:00,
2013-08-15 15:26:00,78.8,55.6,30.06,West,270,6.9,13.0,45,0.00,,,0.00,meteobridge,2013-08-15 20:26:00,
2013-08-15 15:32:00,79.3,57.4,30.06,SW,225,7.6,7.6,47,0.00,,,0.00,meteobridge,2013-08-15 20:32:00,
2013-08-15 15:38:00,79.2,55.9,30.06,NW,315,7.6,9.8,45,0.00,,,0.00,meteobridge,2013-08-15 20:38:00,
2013-08-15 15:43:00,79.2,56.7,30.06,NW,315,6.9,6.9,46,0.00,,,0.00,meteobridge,2013-08-15 20:43:00,
2013-08-15 15:48:00,78.6,56.7,30.06,NW,315,6.0,9.2,47,0.00,,,0.00,meteobridge,2013-08-15 20:48:00,
2013-08-15 15:55:00,79.2,56.7,30.06,North,0,7.6,8.3,46,0.00,,,0.00,meteobridge,2013-08-15 20:55:00,
2013-08-15 16:00:00,78.6,56.7,30.06,SW,225,6.9,8.3,47,0.00,,,0.00,meteobridge,2013-08-15 21:00:00,
2013-08-15 16:05:00,79.9,57.9,30.06,NW,315,9.2,9.2,47,0.00,,,0.00,meteobridge,2013-08-15 21:05:00,
2013-08-15 16:11:00,80.4,57.7,30.06,West,270,4.5,4.5,46,0.00,,,0.00,meteobridge,2013-08-15 21:11:00,
2013-08-15 16:17:00,80.4,57.2,30.06,NW,315,8.3,8.3,45,0.00,,,0.00,meteobridge,2013-08-15 21:17:00,
2013-08-15 16:22:00,79.7,57.7,30.06,NW,315,4.5,6.0,47,0.00,,,0.00,meteobridge,2013-08-15 21:22:00,
2013-08-15 16:28:00,79.7,56.5,30.06,West,270,4.5,5.4,45,0.00,,,0.00,meteobridge,2013-08-15 21:28:00,
2013-08-15 16:34:00,79.9,55.9,30.05,NW,315,6.9,6.9,44,0.00,,,0.00,meteobridge,2013-08-15 21:34:00,
2013-08-15 16:39:00,79.5,56.8,30.05,NW,315,9.8,9.8,46,0.00,,,0.00,meteobridge,2013-08-15 21:39:00,
2013-08-15 16:44:00,79.2,57.2,30.06,WNW,293,6.9,9.8,47,0.00,,,0.00,meteobridge,2013-08-15 21:44:00,
2013-08-15 16:50:00,80.1,56.8,30.05,West,270,4.5,4.5,45,0.00,,,0.00,meteobridge,2013-08-15 21:50:00,
2013-08-15 16:55:00,79.2,56.7,30.05,SW,225,4.5,4.5,46,0.00,,,0.00,meteobridge,2013-08-15 21:55:00,
2013-08-15 17:03:00,79.9,56.7,30.06,SW,225,4.5,6.0,45,0.00,,,0.00,meteobridge,2013-08-15 22:03:00,
2013-08-15 17:08:00,79.7,56.5,30.06,SW,225,3.8,6.9,45,0.00,,,0.00,meteobridge,2013-08-15 22:08:00,
2013-08-15 17:14:00,82.0,57.4,30.06,WNW,293,0.0,0.7,43,0.00,,,0.00,meteobridge,2013-08-15 22:14:00,
2013-08-15 17:19:00,82.2,57.6,30.06,NW,315,0.0,2.2,43,0.00,,,0.00,meteobridge,2013-08-15 22:19:00,
2013-08-15 17:25:00,81.3,56.7,30.06,South,180,0.0,0.0,43,0.00,,,0.00,meteobridge,2013-08-15 22:25:00,
2013-08-15 17:31:00,81.5,56.1,30.06,West,270,2.2,2.2,42,0.00,,,0.00,meteobridge,2013-08-15 22:31:00,
2013-08-15 17:36:00,81.9,55.9,30.06,South,180,2.2,2.2,41,0.00,,,0.00,meteobridge,2013-08-15 22:36:00,
2013-08-15 17:42:00,81.3,56.1,30.06,SW,225,3.8,3.8,42,0.00,,,0.00,meteobridge,2013-08-15 22:42:00,
2013-08-15 17:48:00,81.7,56.3,30.06,West,270,3.8,4.5,42,0.00,,,0.00,meteobridge,2013-08-15 22:48:00,
2013-08-15 17:53:00,81.3,56.7,30.06,SW,225,4.5,4.5,43,0.00,,,0.00,meteobridge,2013-08-15 22:53:00,
2013-08-15 17:59:00,80.4,55.2,30.06,NNW,338,3.8,5.4,42,0.00,,,0.00,meteobridge,2013-08-15 22:59:00,
2013-08-15 18:05:00,79.9,55.4,30.06,SW,225,7.6,7.6,43,0.00,,,0.00,meteobridge,2013-08-15 23:05:00,
2013-08-15 18:10:00,79.0,55.2,30.06,SW,225,6.9,7.6,44,0.00,,,0.00,meteobridge,2013-08-15 23:10:00,
2013-08-15 18:16:00,78.6,56.1,30.06,SW,225,6.0,6.0,46,0.00,,,0.00,meteobridge,2013-08-15 23:16:00,
2013-08-15 18:21:00,79.3,56.1,30.06,SW,225,3.1,3.1,45,0.00,,,0.00,meteobridge,2013-08-15 23:21:00,
2013-08-15 18:27:00,80.2,56.3,30.06,West,270,6.0,6.0,44,0.00,,,0.00,meteobridge,2013-08-15 23:27:00,
2013-08-15 18:33:00,79.7,55.9,30.06,SW,225,6.0,6.0,44,0.00,,,0.00,meteobridge,2013-08-15 23:33:00,
2013-08-15 18:38:00,79.5,55.8,30.06,SW,225,3.1,4.5,44,0.00,,,0.00,meteobridge,2013-08-15 23:38:00,
2013-08-15 18:44:00,79.5,56.3,30.06,West,270,2.2,4.5,45,0.00,,,0.00,meteobridge,2013-08-15 23:44:00,
2013-08-15 18:50:00,79.7,56.5,30.06,SW,225,5.4,5.4,45,0.00,,,0.00,meteobridge,2013-08-15 23:50:00,
2013-08-15 18:55:00,79.2,55.9,30.06,North,0,3.8,5.4,45,0.00,,,0.00,meteobridge,2013-08-15 23:55:00,
2013-08-15 19:00:00,79.0,56.5,30.06,SW,225,4.5,4.5,46,0.00,,,0.00,meteobridge,2013-08-16 00:00:00,
2013-08-15 19:06:00,78.3,57.6,30.06,SW,225,6.9,6.9,49,0.00,,,0.00,meteobridge,2013-08-16 00:06:00,
2013-08-15 19:11:00,77.5,57.9,30.06,SW,225,5.4,6.0,51,0.00,,,0.00,meteobridge,2013-08-16 00:11:00,
2013-08-15 19:17:00,76.1,58.3,30.06,East,90,5.4,6.9,54,0.00,,,0.00,meteobridge,2013-08-16 00:17:00,
2013-08-15 19:23:00,76.3,59.0,30.06,South,180,4.5,4.5,55,0.00,,,0.00,meteobridge,2013-08-16 00:23:00,
2013-08-15 19:28:00,76.3,59.0,30.06,SW,225,4.5,4.5,55,0.00,,,0.00,meteobridge,2013-08-16 00:28:00,
2013-08-15 19:34:00,75.6,58.3,30.06,SW,225,3.8,3.8,55,0.00,,,0.00,meteobridge,2013-08-16 00:34:00,
2013-08-15 19:40:00,75.0,58.8,30.06,West,270,3.8,4.5,57,0.00,,,0.00,meteobridge,2013-08-16 00:40:00,
2013-08-15 19:45:00,74.5,58.3,30.06,WSW,248,4.5,5.4,57,0.00,,,0.00,meteobridge,2013-08-16 00:45:00,
2013-08-15 19:51:00,73.8,58.5,30.06,South,180,3.1,3.8,59,0.00,,,0.00,meteobridge,2013-08-16 00:51:00,
2013-08-15 19:57:00,73.2,59.0,30.06,SSW,203,3.8,5.4,61,0.00,,,0.00,meteobridge,2013-08-16 00:57:00,
2013-08-15 20:02:00,72.5,58.3,30.06,South,180,3.1,3.1,61,0.00,,,0.00,meteobridge,2013-08-16 01:02:00,
2013-08-15 20:08:00,72.0,58.3,30.06,SW,225,1.6,2.2,62,0.00,,,0.00,meteobridge,2013-08-16 01:08:00,
2013-08-15 20:14:00,71.2,58.5,30.07,SSW,203,3.1,3.1,64,0.00,,,0.00,meteobridge,2013-08-16 01:14:00,
2013-08-15 20:19:00,70.9,58.1,30.07,SW,225,2.2,3.1,64,0.00,,,0.00,meteobridge,2013-08-16 01:19:00,
2013-08-15 20:25:00,70.5,58.1,30.07,South,180,0.7,3.1,65,0.00,,,0.00,meteobridge,2013-08-16 01:25:00,
2013-08-15 20:31:00,70.3,58.1,30.07,SW,225,1.6,1.6,65,0.00,,,0.00,meteobridge,2013-08-16 01:31:00,
2013-08-15 20:37:00,69.8,57.6,30.07,South,180,0.0,1.6,65,0.00,,,0.00,meteobridge,2013-08-16 01:37:00,
2013-08-15 20:42:00,69.4,57.9,30.07,South,180,0.0,0.7,67,0.00,,,0.00,meteobridge,2013-08-16 01:42:00,
2013-08-15 20:48:00,68.9,57.9,30.08,South,180,0.0,0.0,68,0.00,,,0.00,meteobridge,2013-08-16 01:48:00,
2013-08-15 20:54:00,68.5,57.9,30.08,South,180,0.0,0.0,69,0.00,,,0.00,meteobridge,2013-08-16 01:54:00,
2013-08-15 20:59:00,68.2,58.1,30.08,South,180,0.7,0.7,70,0.00,,,0.00,meteobridge,2013-08-16 01:59:00,
2013-08-15 21:05:00,68.0,58.3,30.07,South,180,0.0,0.7,71,0.00,,,0.00,meteobridge,2013-08-16 02:05:00,
2013-08-15 21:11:00,67.6,58.3,30.08,South,180,0.0,0.0,72,0.00,,,0.00,meteobridge,2013-08-16 02:11:00,
2013-08-15 21:16:00,67.3,58.3,30.08,South,180,0.0,0.0,73,0.00,,,0.00,meteobridge,2013-08-16 02:16:00,
2013-08-15 21:22:00,66.9,57.9,30.08,South,180,0.0,0.7,73,0.00,,,0.00,meteobridge,2013-08-16 02:22:00,
2013-08-15 21:28:00,66.4,57.9,30.08,SE,135,0.0,0.0,74,0.00,,,0.00,meteobridge,2013-08-16 02:28:00,
2013-08-15 21:33:00,66.0,58.3,30.08,SE,135,0.0,0.0,76,0.00,,,0.00,meteobridge,2013-08-16 02:33:00,
2013-08-15 21:39:00,65.5,57.7,30.09,SE,135,0.0,0.0,76,0.00,,,0.00,meteobridge,2013-08-16 02:39:00,
2013-08-15 21:44:00,65.1,57.4,30.09,SE,135,0.0,0.0,76,0.00,,,0.00,meteobridge,2013-08-16 02:44:00,
2013-08-15 21:50:00,64.8,57.4,30.09,SE,135,0.0,0.0,77,0.00,,,0.00,meteobridge,2013-08-16 02:50:00,
2013-08-15 21:56:00,64.4,57.0,30.09,South,180,0.0,0.0,77,0.00,,,0.00,meteobridge,2013-08-16 02:56:00,
2013-08-15 22:01:00,64.4,57.4,30.09,South,180,0.0,0.0,78,0.00,,,0.00,meteobridge,2013-08-16 03:01:00,
2013-08-15 22:07:00,64.6,57.6,30.09,South,180,0.0,0.0,78,0.00,,,0.00,meteobridge,2013-08-16 03:07:00,
2013-08-15 22:13:00,64.0,56.7,30.09,North,0,0.0,0.0,77,0.00,,,0.00,meteobridge,2013-08-16 03:13:00,
2013-08-15 22:19:00,63.5,56.5,30.09,North,0,0.0,0.0,78,0.00,,,0.00,meteobridge,2013-08-16 03:19:00,
2013-08-15 22:25:00,63.1,56.8,30.10,North,0,0.0,0.0,80,0.00,,,0.00,meteobridge,2013-08-16 03:25:00,
2013-08-15 22:30:00,62.8,56.8,30.10,South,180,0.0,0.0,81,0.00,,,0.00,meteobridge,2013-08-16 03:30:00,
2013-08-15 22:36:00,62.4,56.8,30.10,South,180,0.0,0.0,82,0.00,,,0.00,meteobridge,2013-08-16 03:36:00,
2013-08-15 22:42:00,61.7,56.1,30.10,South,180,0.0,0.0,82,0.00,,,0.00,meteobridge,2013-08-16 03:42:00,
2013-08-15 22:47:00,61.5,55.9,30.10,South,180,0.0,0.0,82,0.00,,,0.00,meteobridge,2013-08-16 03:47:00,
2013-08-15 22:53:00,61.3,56.1,30.10,SE,135,0.0,0.0,83,0.00,,,0.00,meteobridge,2013-08-16 03:53:00,
2013-08-15 22:58:00,61.3,56.5,30.10,SE,135,0.0,0.0,84,0.00,,,0.00,meteobridge,2013-08-16 03:58:00,
2013-08-15 23:01:00,61.2,56.3,30.10,SE,135,0.0,0.0,84,0.00,,,0.00,meteobridge,2013-08-16 04:01:00,
2013-08-15 23:02:00,61.2,56.3,30.11,SE,135,0.0,0.0,84,0.00,,,0.00,meteobridge,2013-08-16 04:02:00,
2013-08-15 23:05:00,61.2,56.3,30.10,SE,135,0.0,0.0,84,0.00,,,0.00,meteobridge,2013-08-16 04:05:00,
2013-08-15 23:11:00,60.8,56.3,30.11,North,0,0.0,0.0,85,0.00,,,0.00,meteobridge,2013-08-16 04:11:00,
2013-08-15 23:14:00,60.8,56.3,30.11,SE,135,0.0,0.0,85,0.00,,,0.00,meteobridge,2013-08-16 04:14:00,
2013-08-15 23:20:00,60.6,56.5,30.11,SE,135,0.0,0.0,86,0.00,,,0.00,meteobridge,2013-08-16 04:20:00,
2013-08-15 23:25:00,60.3,56.1,30.11,SE,135,0.0,0.0,86,0.00,,,0.00,meteobridge,2013-08-16 04:25:00,
2013-08-15 23:31:00,59.9,55.8,30.11,SE,135,0.0,0.0,86,0.00,,,0.00,meteobridge,2013-08-16 04:31:00,
2013-08-15 23:37:00,59.9,55.8,30.11,NW,315,0.0,0.0,86,0.00,,,0.00,meteobridge,2013-08-16 04:37:00,
2013-08-15 23:42:00,60.4,56.5,30.11,South,180,0.0,0.0,87,0.00,,,0.00,meteobridge,2013-08-16 04:42:00,
2013-08-15 23:48:00,60.8,56.3,30.11,South,180,0.0,0.0,85,0.00,,,0.00,meteobridge,2013-08-16 04:48:00,
2013-08-15 23:54:00,60.8,56.3,30.11,South,180,0.0,0.0,85,0.00,,,0.00,meteobridge,2013-08-16 04:54:00,
2013-08-15 23:56:00,60.6,56.5,30.11,South,180,0.0,0.0,86,0.00,,,0.00,meteobridge,2013-08-16 04:56:00,